createdAt,value
2023-03-19T00:00:52.990Z,8.18
2023-03-19T00:01:53.067Z,8.16
2023-03-19T00:02:53.280Z,8.05
2023-03-19T00:03:53.112Z,8.10
2023-03-19T00:04:54.176Z,8.09
2023-03-19T00:05:52.987Z,8.16
2023-03-19T00:06:52.966Z,8.18
2023-03-19T00:07:52.956Z,8.15
2023-03-19T00:08:52.928Z,8.13
2023-03-19T00:09:52.904Z,8.16
2023-03-19T00:10:52.923Z,8.23
2023-03-19T00:11:52.963Z,8.31
2023-03-19T00:12:52.944Z,8.34
2023-03-19T00:13:53.676Z,8.23
2023-03-19T00:14:52.890Z,8.33
2023-03-19T00:15:52.919Z,8.36
2023-03-19T00:16:52.959Z,8.31
2023-03-19T00:17:52.894Z,8.36
2023-03-19T00:18:52.853Z,8.36
2023-03-19T00:19:52.861Z,8.30
2023-03-19T00:20:52.973Z,8.37
2023-03-19T00:21:52.835Z,8.36
2023-03-19T00:22:52.839Z,8.41
2023-03-19T00:23:52.840Z,8.36
2023-03-19T00:24:52.817Z,8.33
2023-03-19T00:25:52.781Z,8.42
2023-03-19T00:26:52.825Z,8.34
2023-03-19T00:27:52.852Z,8.41
2023-03-19T00:28:52.859Z,8.42
2023-03-19T00:29:52.776Z,8.36
2023-03-19T00:30:52.813Z,8.41
2023-03-19T00:31:52.796Z,8.38
2023-03-19T00:32:52.810Z,8.41
2023-03-19T00:33:52.730Z,8.45
2023-03-19T00:34:52.757Z,8.52
2023-03-19T00:35:52.733Z,8.56
2023-03-19T00:36:52.765Z,8.55
2023-03-19T00:37:52.752Z,8.67
2023-03-19T00:38:52.742Z,8.60
2023-03-19T00:39:52.671Z,8.60
2023-03-19T00:40:52.704Z,8.67
2023-03-19T00:41:52.718Z,8.55
2023-03-19T00:42:52.667Z,8.52
2023-03-19T00:43:52.673Z,8.48
2023-03-19T00:44:53.694Z,8.51
2023-03-19T00:45:52.714Z,8.42
2023-03-19T00:46:52.675Z,8.46
2023-03-19T00:47:52.643Z,8.38
2023-03-19T00:48:52.598Z,8.49
2023-03-19T00:49:52.612Z,8.44
2023-03-19T00:50:52.621Z,8.37
2023-03-19T00:51:52.607Z,8.48
2023-03-19T00:52:52.644Z,8.44
2023-03-19T00:53:52.583Z,8.45
2023-03-19T00:54:52.581Z,8.45
2023-03-19T00:55:52.644Z,8.34
2023-03-19T00:56:52.551Z,8.48
2023-03-19T00:57:52.549Z,8.46
2023-03-19T00:58:52.575Z,8.53
2023-03-19T00:59:52.519Z,8.41
2023-03-19T01:00:52.509Z,8.46
2023-03-19T01:01:52.490Z,8.42
2023-03-19T01:02:52.765Z,8.44
2023-03-19T01:03:52.501Z,8.38
2023-03-19T01:04:52.538Z,8.45
2023-03-19T01:05:52.487Z,8.37
2023-03-19T01:06:52.492Z,8.44
2023-03-19T01:07:52.450Z,8.46
2023-03-19T01:08:52.500Z,8.48
2023-03-19T01:09:52.494Z,8.41
2023-03-19T01:10:52.554Z,8.41
2023-03-19T01:11:52.457Z,8.49
2023-03-19T01:12:52.428Z,8.48
2023-03-19T01:13:52.420Z,8.48
2023-03-19T01:14:52.418Z,8.41
2023-03-19T01:15:52.435Z,8.42
2023-03-19T01:16:52.399Z,8.38
2023-03-19T01:17:52.386Z,8.42
2023-03-19T01:18:52.364Z,8.37
2023-03-19T01:19:52.375Z,8.37
2023-03-19T01:20:52.379Z,8.37
2023-03-19T01:21:52.374Z,8.45
2023-03-19T01:22:52.356Z,8.41
2023-03-19T01:23:52.390Z,8.24
2023-03-19T01:24:52.868Z,8.31
2023-03-19T01:25:52.304Z,8.33
2023-03-19T01:26:53.350Z,8.27
2023-03-19T01:27:52.307Z,8.27
2023-03-19T01:28:52.295Z,8.23
2023-03-19T01:29:52.280Z,8.13
2023-03-19T01:30:52.300Z,8.24
2023-03-19T01:31:52.315Z,8.18
2023-03-19T01:32:52.369Z,8.26
2023-03-19T01:33:52.236Z,8.15
2023-03-19T01:34:52.250Z,8.18
2023-03-19T01:35:52.245Z,8.10
2023-03-19T01:36:52.258Z,8.13
2023-03-19T01:37:52.370Z,8.13
2023-03-19T01:38:52.265Z,8.06
2023-03-19T01:39:52.220Z,8.12
2023-03-19T01:40:52.239Z,8.06
2023-03-19T01:41:52.203Z,8.05
2023-03-19T01:42:52.192Z,8.12
2023-03-19T01:43:52.202Z,8.12
2023-03-19T01:44:52.186Z,8.06
2023-03-19T01:45:53.056Z,8.01
2023-03-19T01:46:52.210Z,8.09
2023-03-19T01:47:52.146Z,8.00
2023-03-19T01:48:52.227Z,8.00
2023-03-19T01:49:52.166Z,8.03
2023-03-19T01:50:52.139Z,8.03
2023-03-19T01:51:52.189Z,8.08
2023-03-19T01:52:52.121Z,8.05
2023-03-19T01:53:52.179Z,7.98
2023-03-19T01:54:52.170Z,8.00
2023-03-19T01:55:52.074Z,8.08
2023-03-19T01:56:52.082Z,8.06
2023-03-19T01:57:52.074Z,7.94
2023-03-19T01:58:52.207Z,7.95
2023-03-19T01:59:52.063Z,7.94
2023-03-19T02:00:52.069Z,7.94
2023-03-19T02:01:52.154Z,8.01
2023-03-19T02:02:52.051Z,8.06
2023-03-19T02:03:52.065Z,8.05
2023-03-19T02:04:52.060Z,8.01
2023-03-19T02:05:52.016Z,8.01
2023-03-19T02:06:52.020Z,8.03
2023-03-19T02:07:52.011Z,7.98
2023-03-19T02:08:52.001Z,7.97
2023-03-19T02:09:52.022Z,8.00
2023-03-19T02:10:51.985Z,8.03
2023-03-19T02:11:51.989Z,8.03
2023-03-19T02:12:52.034Z,8.12
2023-03-19T02:13:51.959Z,8.03
2023-03-19T02:14:51.926Z,8.08
2023-03-19T02:15:52.000Z,8.06
2023-03-19T02:16:51.951Z,8.09
2023-03-19T02:17:51.922Z,8.13
2023-03-19T02:18:51.890Z,8.16
2023-03-19T02:19:51.925Z,8.12
2023-03-19T02:20:51.890Z,8.03
2023-03-19T02:21:52.011Z,8.09
2023-03-19T02:22:51.958Z,8.06
2023-03-19T02:23:51.857Z,8.09
2023-03-19T02:24:51.879Z,8.05
2023-03-19T02:25:51.836Z,8.03
2023-03-19T02:26:51.842Z,8.12
2023-03-19T02:27:52.022Z,8.08
2023-03-19T02:28:51.819Z,8.09
2023-03-19T02:29:51.928Z,8.12
2023-03-19T02:30:51.882Z,8.12
2023-03-19T02:31:51.837Z,8.15
2023-03-19T02:32:51.977Z,8.18
2023-03-19T02:33:51.793Z,8.19
2023-03-19T02:34:51.808Z,8.18
2023-03-19T02:35:51.887Z,8.19
2023-03-19T02:36:51.801Z,8.15
2023-03-19T02:37:51.781Z,8.13
2023-03-19T02:38:51.789Z,8.06
2023-03-19T02:39:51.729Z,8.09
2023-03-19T02:40:51.741Z,8.16
2023-03-19T02:41:51.735Z,8.09
2023-03-19T02:42:51.722Z,8.05
2023-03-19T02:43:51.725Z,8.03
2023-03-19T02:44:51.702Z,7.98
2023-03-19T02:45:51.688Z,7.97
2023-03-19T02:46:51.760Z,7.98
2023-03-19T02:47:51.715Z,8.00
2023-03-19T02:48:51.680Z,7.98
2023-03-19T02:49:51.677Z,8.06
2023-03-19T02:50:51.677Z,7.97
2023-03-19T02:51:51.663Z,7.94
2023-03-19T02:52:51.661Z,7.91
2023-03-19T02:53:51.689Z,7.90
2023-03-19T02:54:51.624Z,8.00
2023-03-19T02:55:51.610Z,7.98
2023-03-19T02:56:51.655Z,7.94
2023-03-19T02:57:51.592Z,7.90
2023-03-19T02:58:51.672Z,7.97
2023-03-19T02:59:51.590Z,8.00
2023-03-19T03:00:51.645Z,8.00
2023-03-19T03:01:51.690Z,7.98
2023-03-19T03:02:51.547Z,8.01
2023-03-19T03:03:51.558Z,8.01
2023-03-19T03:04:51.555Z,8.03
2023-03-19T03:05:51.593Z,8.01
2023-03-19T03:06:51.570Z,8.03
2023-03-19T03:07:51.518Z,8.06
2023-03-19T03:08:51.531Z,8.01
2023-03-19T03:09:51.518Z,7.98
2023-03-19T03:10:51.513Z,7.90
2023-03-19T03:11:51.499Z,7.90
2023-03-19T03:12:51.553Z,7.95
2023-03-19T03:13:51.484Z,7.98
2023-03-19T03:14:51.477Z,7.97
2023-03-19T03:15:51.513Z,7.94
2023-03-19T03:16:51.460Z,7.93
2023-03-19T03:17:51.468Z,7.98
2023-03-19T03:18:51.454Z,7.90
2023-03-19T03:19:51.441Z,7.98
2023-03-19T03:20:51.445Z,7.97
2023-03-19T03:21:51.452Z,7.95
2023-03-19T03:22:51.416Z,7.95
2023-03-19T03:23:51.388Z,7.93
2023-03-19T03:24:51.399Z,7.95
2023-03-19T03:25:51.397Z,8.00
2023-03-19T03:26:51.414Z,8.00
2023-03-19T03:27:51.367Z,7.90
2023-03-19T03:28:51.369Z,8.01
2023-03-19T03:29:51.359Z,7.85
2023-03-19T03:30:51.379Z,7.93
2023-03-19T03:31:51.407Z,7.95
2023-03-19T03:32:51.368Z,7.91
2023-03-19T03:33:51.332Z,8.06
2023-03-19T03:34:51.342Z,8.08
2023-03-19T03:35:51.306Z,8.06
2023-03-19T03:36:52.341Z,8.06
2023-03-19T03:37:51.314Z,7.94
2023-03-19T03:38:51.317Z,8.01
2023-03-19T03:39:51.272Z,8.09
2023-03-19T03:40:51.291Z,7.95
2023-03-19T03:41:51.291Z,8.08
2023-03-19T03:42:51.285Z,8.05
2023-03-19T03:43:51.256Z,8.03
2023-03-19T03:44:51.299Z,8.08
2023-03-19T03:45:51.298Z,8.00
2023-03-19T03:46:51.241Z,7.97
2023-03-19T04:02:46.828Z,8.05
2023-03-19T04:03:46.746Z,7.98
2023-03-19T04:04:46.706Z,8.06
2023-03-19T04:05:46.737Z,8.00
2023-03-19T04:06:47.844Z,8.06
2023-03-19T04:07:47.874Z,8.05
2023-03-19T04:08:47.847Z,8.10
2023-03-19T04:09:47.822Z,8.05
2023-03-19T04:10:47.835Z,8.03
2023-03-19T04:11:49.785Z,8.03
2023-03-19T04:12:47.828Z,7.95
2023-03-19T04:13:47.789Z,8.05
2023-03-19T04:14:47.787Z,7.94
2023-03-19T04:15:47.780Z,7.95
2023-03-19T04:16:47.817Z,7.90
2023-03-19T04:17:47.772Z,7.94
2023-03-19T04:18:47.766Z,7.94
2023-03-19T04:19:47.795Z,7.98
2023-03-19T04:20:47.736Z,7.95
2023-03-19T04:21:47.747Z,7.98
2023-03-19T04:22:47.712Z,8.01
2023-03-19T04:23:47.716Z,8.03
2023-03-19T04:24:47.701Z,7.98
2023-03-19T04:25:47.714Z,7.95
2023-03-19T04:26:47.691Z,7.98
2023-03-19T04:27:47.786Z,8.09
2023-03-19T04:28:47.657Z,8.01
2023-03-19T04:29:47.654Z,8.00
2023-03-19T04:30:47.696Z,8.03
2023-03-19T04:31:47.632Z,8.01
2023-03-19T04:32:47.765Z,8.00
2023-03-19T04:33:47.652Z,8.06
2023-03-19T04:34:47.616Z,8.00
2023-03-19T04:35:47.660Z,7.95
2023-03-19T04:36:48.618Z,8.05
2023-03-19T04:37:47.625Z,7.95
2023-03-19T04:38:47.581Z,8.01
2023-03-19T04:39:47.577Z,7.95
2023-03-19T04:40:47.566Z,8.08
2023-03-19T04:41:47.652Z,8.05
2023-03-19T04:42:47.570Z,7.94
2023-03-19T04:43:47.551Z,8.00
2023-03-19T04:44:48.610Z,7.91
2023-03-19T04:45:47.586Z,7.95
2023-03-19T04:46:47.587Z,7.90
2023-03-19T04:47:47.530Z,7.97
2023-03-19T04:48:47.527Z,7.95
2023-03-19T04:49:47.519Z,7.98
2023-03-19T04:50:47.538Z,7.93
2023-03-19T04:51:47.539Z,7.88
2023-03-19T04:52:47.489Z,7.93
2023-03-19T04:53:47.544Z,7.88
2023-03-19T04:54:47.510Z,7.88
2023-03-19T04:55:47.456Z,7.91
2023-03-19T04:56:47.439Z,7.97
2023-03-19T04:57:47.470Z,7.98
2023-03-19T04:58:47.450Z,7.97
2023-03-19T04:59:47.476Z,7.87
2023-03-19T05:00:47.438Z,7.95
2023-03-19T05:01:47.486Z,7.87
2023-03-19T05:02:47.412Z,7.90
2023-03-19T05:03:47.467Z,8.00
2023-03-19T05:04:47.428Z,8.01
2023-03-19T05:05:47.409Z,8.00
2023-03-19T05:06:47.383Z,8.06
2023-03-19T05:07:47.379Z,8.01
2023-03-19T05:08:47.381Z,8.06
2023-03-19T05:09:47.359Z,8.03
2023-03-19T05:10:47.415Z,8.09
2023-03-19T05:11:47.365Z,8.08
2023-03-19T05:12:47.314Z,8.00
2023-03-19T05:13:47.310Z,8.03
2023-03-19T05:14:47.331Z,8.03
2023-03-19T05:15:47.364Z,8.01
2023-03-19T05:16:47.305Z,8.08
2023-03-19T05:17:47.284Z,7.98
2023-03-19T05:18:47.295Z,7.94
2023-03-19T05:19:47.269Z,8.01
2023-03-19T05:20:47.282Z,8.03
2023-03-19T05:21:47.259Z,8.05
2023-03-19T05:22:47.933Z,8.00
2023-03-19T05:23:47.283Z,8.03
2023-03-19T05:24:47.266Z,7.97
2023-03-19T05:25:47.230Z,7.98
2023-03-19T05:26:47.237Z,7.98
2023-03-19T05:27:47.262Z,7.98
2023-03-19T05:28:47.212Z,8.06
2023-03-19T05:29:47.189Z,8.05
2023-03-19T05:30:47.285Z,8.00
2023-03-19T05:31:47.171Z,7.98
2023-03-19T05:32:47.256Z,7.94
2023-03-19T05:33:47.151Z,8.10
2023-03-19T05:34:47.148Z,8.00
2023-03-19T05:35:47.199Z,7.91
2023-03-19T05:36:47.158Z,8.09
2023-03-19T05:37:47.158Z,8.08
2023-03-19T05:38:47.119Z,8.06
2023-03-19T05:39:47.096Z,8.08
2023-03-19T05:40:47.088Z,8.01
2023-03-19T05:41:47.097Z,8.01
2023-03-19T05:42:47.149Z,8.00
2023-03-19T05:43:47.082Z,8.05
2023-03-19T05:44:47.066Z,7.95
2023-03-19T05:45:47.071Z,7.87
2023-03-19T05:46:47.127Z,7.90
2023-03-19T05:47:47.092Z,7.80
2023-03-19T05:48:47.097Z,7.93
2023-03-19T05:49:47.040Z,7.83
2023-03-19T05:50:47.042Z,7.87
2023-03-19T05:51:47.044Z,7.82
2023-03-19T05:52:47.032Z,7.85
2023-03-19T05:53:47.032Z,7.73
2023-03-19T05:54:46.987Z,7.79
2023-03-19T05:55:47.012Z,7.70
2023-03-19T05:56:47.000Z,7.77
2023-03-19T05:57:46.982Z,7.76
2023-03-19T05:58:46.977Z,7.83
2023-03-19T05:59:47.962Z,7.82
2023-03-19T06:00:46.989Z,7.76
2023-03-19T06:01:46.989Z,7.83
2023-03-19T06:02:47.040Z,7.77
2023-03-19T06:03:46.973Z,7.73
2023-03-19T06:04:46.910Z,7.79
2023-03-19T06:05:47.015Z,7.73
2023-03-19T06:06:46.920Z,7.80
2023-03-19T06:07:46.927Z,7.77
2023-03-19T06:08:46.880Z,7.82
2023-03-19T06:09:46.878Z,7.85
2023-03-19T06:10:46.893Z,7.88
2023-03-19T06:11:46.856Z,7.85
2023-03-19T06:12:46.894Z,7.91
2023-03-19T06:13:46.847Z,7.87
2023-03-19T06:14:46.836Z,7.91
2023-03-19T06:15:46.852Z,7.91
2023-03-19T06:16:46.825Z,7.88
2023-03-19T06:17:46.906Z,7.90
2023-03-19T06:18:46.860Z,7.98
2023-03-19T06:19:46.809Z,8.00
2023-03-19T06:20:46.833Z,8.01
2023-03-19T06:21:46.819Z,7.94
2023-03-19T06:22:46.906Z,8.01
2023-03-19T06:23:46.865Z,8.01
2023-03-19T06:24:46.776Z,8.01
2023-03-19T06:25:46.802Z,8.06
2023-03-19T06:26:46.757Z,8.00
2023-03-19T06:27:46.763Z,8.01
2023-03-19T06:28:46.733Z,8.05
2023-03-19T06:29:46.733Z,8.12
2023-03-19T06:30:46.754Z,8.03
2023-03-19T06:31:46.798Z,8.15
2023-03-19T06:32:46.764Z,8.09
2023-03-19T06:33:46.713Z,8.18
2023-03-19T06:34:46.745Z,8.16
2023-03-19T06:35:46.707Z,8.12
2023-03-19T06:36:46.693Z,8.10
2023-03-19T06:37:46.666Z,8.06
2023-03-19T06:38:46.666Z,8.12
2023-03-19T06:39:46.719Z,8.20
2023-03-19T06:40:46.755Z,8.18
2023-03-19T06:41:46.664Z,8.26
2023-03-19T06:42:46.655Z,8.28
2023-03-19T06:43:46.636Z,8.26
2023-03-19T06:44:46.702Z,8.28
2023-03-19T06:45:46.680Z,8.28
2023-03-19T06:46:46.603Z,8.28
2023-03-19T06:47:46.605Z,8.20
2023-03-19T06:48:46.621Z,8.23
2023-03-19T06:49:46.573Z,8.38
2023-03-19T06:50:46.597Z,8.31
2023-03-19T06:51:46.585Z,8.37
2023-03-19T06:52:46.621Z,8.37
2023-03-19T06:53:46.607Z,8.44
2023-03-19T06:54:46.573Z,8.38
2023-03-19T06:55:46.579Z,8.53
2023-03-19T06:56:46.549Z,8.49
2023-03-19T06:57:46.507Z,8.53
2023-03-19T06:58:46.578Z,8.44
2023-03-19T06:59:46.521Z,8.42
2023-03-19T07:00:46.640Z,8.42
2023-03-19T07:01:46.498Z,8.53
2023-03-19T07:02:46.478Z,8.48
2023-03-19T07:03:46.514Z,8.48
2023-03-19T07:04:46.443Z,8.58
2023-03-19T07:05:46.453Z,8.63
2023-03-19T07:06:46.488Z,8.61
2023-03-19T07:07:46.474Z,8.58
2023-03-19T07:08:46.515Z,8.61
2023-03-19T07:09:46.420Z,8.69
2023-03-19T07:10:46.442Z,8.70
2023-03-19T07:11:46.406Z,8.69
2023-03-19T07:12:46.463Z,8.71
2023-03-19T07:13:46.411Z,8.70
2023-03-19T07:14:46.409Z,8.79
2023-03-19T07:16:18.971Z,8.78
2023-03-19T07:16:46.487Z,8.81
2023-03-19T07:17:46.468Z,8.79
2023-03-19T07:18:46.377Z,8.82
2023-03-19T07:19:46.367Z,8.85
2023-03-19T07:20:46.359Z,8.84
2023-03-19T07:21:46.335Z,8.81
2023-03-19T07:22:46.369Z,8.88
2023-03-19T07:23:46.345Z,8.82
2023-03-19T07:24:46.314Z,8.87
2023-03-19T07:25:46.303Z,8.89
2023-03-19T07:26:46.300Z,8.91
2023-03-19T07:27:46.296Z,9.03
2023-03-19T07:28:46.293Z,9.02
2023-03-19T07:29:46.260Z,9.00
2023-03-19T07:30:46.277Z,9.04
2023-03-19T07:31:46.370Z,9.14
2023-03-19T07:32:46.313Z,9.02
2023-03-19T07:33:46.247Z,9.25
2023-03-19T07:34:46.254Z,9.19
2023-03-19T07:35:46.231Z,9.19
2023-03-19T07:36:46.251Z,9.28
2023-03-19T07:37:46.210Z,9.34
2023-03-19T07:38:46.223Z,9.50
2023-03-19T07:39:46.212Z,9.54
2023-03-19T07:41:01.046Z,9.54
2023-03-19T07:41:48.209Z,9.58
2023-03-19T07:42:46.174Z,9.65
2023-03-19T07:43:46.209Z,9.66
2023-03-19T07:44:46.204Z,9.76
2023-03-19T07:45:46.188Z,9.69
2023-03-19T07:46:46.140Z,9.82
2023-03-19T07:47:47.386Z,9.73
2023-03-19T07:48:46.118Z,9.84
2023-03-19T07:49:46.115Z,9.82
2023-03-19T07:50:46.134Z,9.83
2023-03-19T07:51:46.134Z,9.83
2023-03-19T07:52:46.105Z,9.94
2023-03-19T07:53:46.129Z,9.97
2023-03-19T07:54:46.109Z,9.94
2023-03-19T07:55:46.107Z,9.99
2023-03-19T07:56:46.170Z,10.07
2023-03-19T07:57:46.055Z,10.16
2023-03-19T07:58:46.101Z,10.26
2023-03-19T07:59:46.075Z,10.33
2023-03-19T08:00:46.038Z,10.22
2023-03-19T08:01:46.048Z,10.30
2023-03-19T08:02:46.068Z,10.44
2023-03-19T08:03:46.022Z,10.38
2023-03-19T08:04:46.013Z,10.53
2023-03-19T08:05:46.000Z,10.64
2023-03-19T08:06:46.053Z,10.67
2023-03-19T08:07:45.999Z,10.76
2023-03-19T08:08:45.981Z,10.79
2023-03-19T08:09:45.958Z,10.82
2023-03-19T08:10:45.989Z,10.94
2023-03-19T08:11:45.980Z,10.84
2023-03-19T08:12:46.914Z,11.05
2023-03-19T08:13:46.004Z,11.10
2023-03-19T08:14:45.936Z,11.33
2023-03-19T08:15:45.927Z,11.62
2023-03-19T08:16:45.949Z,11.73
2023-03-19T08:17:45.971Z,11.87
2023-03-19T08:18:45.902Z,12.06
2023-03-19T08:19:45.881Z,11.65
2023-03-19T08:20:45.892Z,11.75
2023-03-19T08:21:45.869Z,12.04
2023-03-19T08:22:45.892Z,12.20
2023-03-19T08:23:45.881Z,12.07
2023-03-19T08:24:45.823Z,12.02
2023-03-19T08:25:45.824Z,12.24
2023-03-19T08:26:45.814Z,12.20
2023-03-19T08:27:45.808Z,12.15
2023-03-19T08:28:45.841Z,12.35
2023-03-19T08:29:46.494Z,12.39
2023-03-19T08:30:45.801Z,12.64
2023-03-19T08:31:45.775Z,12.58
2023-03-19T08:32:45.855Z,12.78
2023-03-19T08:33:45.822Z,12.91
2023-03-19T08:34:47.629Z,12.87
2023-03-19T08:35:45.813Z,12.86
2023-03-19T08:36:45.760Z,13.01
2023-03-19T08:37:45.730Z,12.97
2023-03-19T08:38:45.739Z,12.80
2023-03-19T08:39:45.746Z,12.55
2023-03-19T08:40:45.727Z,12.35
2023-03-19T08:41:45.726Z,12.29
2023-03-19T08:42:45.678Z,12.12
2023-03-19T08:43:45.689Z,11.80
2023-03-19T08:44:45.714Z,11.83
2023-03-19T08:45:45.686Z,12.02
2023-03-19T08:46:45.704Z,12.18
2023-03-19T08:47:45.648Z,12.40
2023-03-19T08:48:45.691Z,12.67
2023-03-19T08:49:45.642Z,12.87
2023-03-19T08:50:45.629Z,13.12
2023-03-19T08:51:45.615Z,13.15
2023-03-19T08:52:45.602Z,13.23
2023-03-19T08:53:45.613Z,13.42
2023-03-19T08:54:45.632Z,13.44
2023-03-19T08:55:45.677Z,13.65
2023-03-19T08:56:46.538Z,13.54
2023-03-19T08:57:45.638Z,13.38
2023-03-19T08:58:45.583Z,13.23
2023-03-19T08:59:45.620Z,13.28
2023-03-19T09:00:45.580Z,13.59
2023-03-19T09:01:45.588Z,13.65
2023-03-19T09:02:45.572Z,13.47
2023-03-19T09:03:45.546Z,13.18
2023-03-19T09:04:45.590Z,12.75
2023-03-19T09:05:45.548Z,12.80
2023-03-19T09:06:45.510Z,12.57
2023-03-19T09:07:45.505Z,12.45
2023-03-19T09:08:45.513Z,12.61
2023-03-19T09:09:45.485Z,12.78
2023-03-19T09:10:45.496Z,13.09
2023-03-19T09:11:46.526Z,13.28
2023-03-19T09:12:47.431Z,13.37
2023-03-19T09:13:45.475Z,13.72
2023-03-19T09:14:46.022Z,13.79
2023-03-19T09:15:45.433Z,13.74
2023-03-19T09:16:45.460Z,13.68
2023-03-19T09:17:45.455Z,13.63
2023-03-19T09:18:45.419Z,13.70
2023-03-19T09:19:45.412Z,13.74
2023-03-19T09:20:45.409Z,13.86
2023-03-19T09:21:45.390Z,14.26
2023-03-19T09:22:45.394Z,14.51
2023-03-19T09:23:45.409Z,14.77
2023-03-19T09:24:45.460Z,14.84
2023-03-19T09:25:45.351Z,14.69
2023-03-19T09:26:46.366Z,14.78
2023-03-19T09:27:45.381Z,14.99
2023-03-19T09:28:45.318Z,14.97
2023-03-19T09:29:45.306Z,15.02
2023-03-19T09:30:45.328Z,15.17
2023-03-19T09:31:45.341Z,15.31
2023-03-19T09:32:45.319Z,15.37
2023-03-19T09:33:45.356Z,15.55
2023-03-19T09:34:45.280Z,15.43
2023-03-19T09:35:45.322Z,15.42
2023-03-19T09:36:45.321Z,15.47
2023-03-19T09:37:45.266Z,15.64
2023-03-19T09:38:45.322Z,15.68
2023-03-19T09:39:45.278Z,15.65
2023-03-19T09:40:45.257Z,15.82
2023-03-19T09:41:45.231Z,15.80
2023-03-19T09:42:45.240Z,15.52
2023-03-19T09:43:45.268Z,15.67
2023-03-19T09:44:45.318Z,15.55
2023-03-19T09:45:45.239Z,15.54
2023-03-19T09:46:45.289Z,15.73
2023-03-19T09:47:45.196Z,15.80
2023-03-19T09:48:45.289Z,15.90
2023-03-19T09:49:45.210Z,15.80
2023-03-19T09:50:45.190Z,15.62
2023-03-19T09:51:45.183Z,15.68
2023-03-19T09:52:45.274Z,16.00
2023-03-19T09:53:45.157Z,16.49
2023-03-19T09:54:45.176Z,16.91
2023-03-19T09:55:45.187Z,16.86
2023-03-19T09:56:45.167Z,16.68
2023-03-19T09:57:45.171Z,16.69
2023-03-19T09:58:46.098Z,16.91
2023-03-19T09:59:45.160Z,17.09
2023-03-19T10:00:45.138Z,17.31
2023-03-19T10:01:45.137Z,17.39
2023-03-19T10:02:45.105Z,17.39
2023-03-19T10:03:45.089Z,17.71
2023-03-19T10:04:45.105Z,17.90
2023-03-19T10:05:45.067Z,17.87
2023-03-19T10:06:45.069Z,18.05
2023-03-19T10:07:45.024Z,18.38
2023-03-19T10:08:46.047Z,18.56
2023-03-19T10:09:45.027Z,18.52
2023-03-19T10:10:45.071Z,18.68
2023-03-19T10:11:45.018Z,18.95
2023-03-19T10:12:45.039Z,19.37
2023-03-19T10:13:45.014Z,18.99
2023-03-19T10:14:44.978Z,19.24
2023-03-19T10:15:44.975Z,19.51
2023-03-19T10:16:45.014Z,19.40
2023-03-19T10:17:45.021Z,19.07
2023-03-19T10:18:45.318Z,19.14
2023-03-19T10:19:45.187Z,19.12
2023-03-19T10:20:44.966Z,18.86
2023-03-19T10:21:45.012Z,18.41
2023-03-19T10:22:44.981Z,18.95
2023-03-19T10:23:44.956Z,19.36
2023-03-19T10:24:44.908Z,19.62
2023-03-19T10:25:44.915Z,20.06
2023-03-19T10:26:44.975Z,20.03
2023-03-19T10:27:44.923Z,19.86
2023-03-19T10:28:45.067Z,19.58
2023-03-19T10:29:44.972Z,19.31
2023-03-19T10:30:44.869Z,19.40
2023-03-19T10:31:44.978Z,19.86
2023-03-19T10:32:44.946Z,20.13
2023-03-19T10:33:44.842Z,19.88
2023-03-19T10:34:44.843Z,20.29
2023-03-19T10:35:44.976Z,20.44
2023-03-19T10:36:44.833Z,20.75
2023-03-19T10:37:44.820Z,21.17
2023-03-19T10:38:44.854Z,21.29
2023-03-19T10:39:44.816Z,20.92
2023-03-19T10:40:44.831Z,21.09
2023-03-19T10:41:44.898Z,20.96
2023-03-19T10:42:44.775Z,20.69
2023-03-19T10:43:44.766Z,20.56
2023-03-19T10:44:44.790Z,20.34
2023-03-19T10:45:44.890Z,20.36
2023-03-19T10:46:44.755Z,20.29
2023-03-19T10:47:44.791Z,20.21
2023-03-19T10:48:44.803Z,19.89
2023-03-19T10:49:44.724Z,19.95
2023-03-19T10:50:44.731Z,19.85
2023-03-19T10:51:44.726Z,19.55
2023-03-19T10:52:44.755Z,19.49
2023-03-19T10:53:44.729Z,19.24
2023-03-19T10:54:44.705Z,19.52
2023-03-19T10:55:44.641Z,19.94
2023-03-19T10:56:44.677Z,19.55
2023-03-19T10:57:44.655Z,19.09
2023-03-19T10:58:44.715Z,19.26
2023-03-19T10:59:44.692Z,19.11
2023-03-19T11:00:44.744Z,18.78
2023-03-19T11:01:44.617Z,18.90
2023-03-19T11:02:44.677Z,19.11
2023-03-19T11:03:44.649Z,18.99
2023-03-19T11:04:44.602Z,19.14
2023-03-19T11:05:44.673Z,19.45
2023-03-19T11:06:44.622Z,19.47
2023-03-19T11:07:44.621Z,19.37
2023-03-19T11:08:44.584Z,19.02
2023-03-19T11:09:44.640Z,19.00
2023-03-19T11:10:44.579Z,18.98
2023-03-19T11:11:44.562Z,18.52
2023-03-19T11:12:44.521Z,18.34
2023-03-19T11:13:44.657Z,18.63
2023-03-19T11:14:44.514Z,18.65
2023-03-19T11:15:44.568Z,18.65
2023-03-19T11:16:44.569Z,18.93
2023-03-19T11:17:44.540Z,19.11
2023-03-19T11:18:45.449Z,19.12
2023-03-19T11:19:44.508Z,19.36
2023-03-19T11:20:44.478Z,19.40
2023-03-19T11:21:44.474Z,19.48
2023-03-19T11:22:44.458Z,19.24
2023-03-19T11:23:44.496Z,19.36
2023-03-19T11:24:44.446Z,19.15
2023-03-19T11:25:44.511Z,19.40
2023-03-19T11:26:44.476Z,19.34
2023-03-19T11:27:44.493Z,18.86
2023-03-19T11:28:44.414Z,18.81
2023-03-19T11:29:44.481Z,18.60
2023-03-19T11:30:44.418Z,18.60
2023-03-19T11:31:44.487Z,18.65
2023-03-19T11:32:44.505Z,18.41
2023-03-19T11:33:44.417Z,18.50
2023-03-19T11:34:44.355Z,18.71
2023-03-19T11:35:44.473Z,19.11
2023-03-19T11:36:44.364Z,19.09
2023-03-19T11:37:44.377Z,19.11
2023-03-19T11:38:44.356Z,19.02
2023-03-19T11:39:44.338Z,18.98
2023-03-19T11:40:44.347Z,19.07
2023-03-19T11:41:44.352Z,18.92
2023-03-19T11:42:44.354Z,19.00
2023-03-19T11:43:44.335Z,19.14
2023-03-19T11:44:44.312Z,19.27
2023-03-19T11:45:44.350Z,18.80
2023-03-19T11:46:44.299Z,18.55
2023-03-19T11:47:44.349Z,18.58
2023-03-19T11:48:44.394Z,18.43
2023-03-19T11:49:44.270Z,18.68
2023-03-19T11:50:45.087Z,18.59
2023-03-19T11:51:44.252Z,18.52
2023-03-19T11:52:44.264Z,18.40
2023-03-19T11:53:44.278Z,18.18
2023-03-19T11:54:44.275Z,18.23
2023-03-19T11:55:44.272Z,18.19
2023-03-19T11:56:44.210Z,18.20
2023-03-19T11:57:44.204Z,18.15
2023-03-19T11:58:44.224Z,17.92
2023-03-19T11:59:44.200Z,17.72
2023-03-19T12:00:44.187Z,17.72
2023-03-19T12:01:44.160Z,17.44
2023-03-19T12:02:44.274Z,17.49
2023-03-19T12:03:44.277Z,17.44
2023-03-19T12:04:44.170Z,17.54
2023-03-19T12:05:44.183Z,17.64
2023-03-19T12:06:45.146Z,17.59
2023-03-19T12:07:44.120Z,17.49
2023-03-19T12:08:44.130Z,17.46
2023-03-19T12:09:44.165Z,17.60
2023-03-19T12:10:44.169Z,17.65
2023-03-19T12:11:44.101Z,17.76
2023-03-19T12:12:44.192Z,17.68
2023-03-19T12:13:44.104Z,17.83
2023-03-19T12:14:44.098Z,17.80
2023-03-19T12:15:44.107Z,17.94
2023-03-19T12:16:46.532Z,18.07
2023-03-19T12:17:45.078Z,18.31
2023-03-19T12:18:44.043Z,18.41
2023-03-19T12:19:44.036Z,18.47
2023-03-19T12:20:44.035Z,18.73
2023-03-19T12:21:44.056Z,18.90
2023-03-19T12:22:44.214Z,18.93
2023-03-19T12:23:44.010Z,18.88
2023-03-19T12:24:43.980Z,18.86
2023-03-19T12:25:43.977Z,18.73
2023-03-19T12:26:44.009Z,18.63
2023-03-19T12:27:44.005Z,18.81
2023-03-19T12:28:43.973Z,19.08
2023-03-19T12:29:43.953Z,19.45
2023-03-19T12:30:44.060Z,19.33
2023-03-19T12:31:43.970Z,19.04
2023-03-19T12:32:43.965Z,18.66
2023-03-19T12:33:43.997Z,18.43
2023-03-19T12:34:43.958Z,18.37
2023-03-19T12:35:44.044Z,18.11
2023-03-19T12:36:43.926Z,18.03
2023-03-19T12:37:43.935Z,18.10
2023-03-19T12:38:43.900Z,18.22
2023-03-19T12:39:43.878Z,18.50
2023-03-19T12:40:43.878Z,18.86
2023-03-19T12:41:43.851Z,18.95
2023-03-19T12:42:43.870Z,18.62
2023-03-19T12:43:43.892Z,18.96
2023-03-19T12:44:43.882Z,19.02
2023-03-19T12:45:43.866Z,18.60
2023-03-19T12:46:43.934Z,18.56
2023-03-19T12:47:43.841Z,18.25
2023-03-19T12:48:43.901Z,18.20
2023-03-19T12:49:44.399Z,18.10
2023-03-19T12:50:43.798Z,17.95
2023-03-19T12:51:43.818Z,17.72
2023-03-19T12:52:43.884Z,17.48
2023-03-19T12:53:43.811Z,17.45
2023-03-19T12:54:43.797Z,17.36
2023-03-19T12:55:43.779Z,17.23
2023-03-19T12:56:43.749Z,17.08
2023-03-19T12:57:44.670Z,17.12
2023-03-19T12:58:43.768Z,17.26
2023-03-19T12:59:43.766Z,17.23
2023-03-19T13:00:43.736Z,17.23
2023-03-19T13:01:43.757Z,17.30
2023-03-19T13:02:43.746Z,17.22
2023-03-19T13:03:43.737Z,17.20
2023-03-19T13:04:43.707Z,17.04
2023-03-19T13:05:43.702Z,16.94
2023-03-19T13:06:43.767Z,16.86
2023-03-19T13:07:43.680Z,16.79
2023-03-19T13:08:43.665Z,16.68
2023-03-19T13:09:43.664Z,16.72
2023-03-19T13:10:43.662Z,16.54
2023-03-19T13:11:43.621Z,16.71
2023-03-19T13:12:43.622Z,16.81
2023-03-19T13:13:43.613Z,16.99
2023-03-19T13:14:43.644Z,17.14
2023-03-19T13:15:43.723Z,17.20
2023-03-19T13:16:43.650Z,17.39
2023-03-19T13:17:43.623Z,17.54
2023-03-19T13:18:43.576Z,17.59
2023-03-19T13:19:43.611Z,17.72
2023-03-19T13:20:43.613Z,17.74
2023-03-19T13:21:43.568Z,17.85
2023-03-19T13:22:43.646Z,17.71